sensor_id;sensor_type;location;lat;lon;timestamp;pressure;altitude;pressure_sealevel;temperature;humidity
72409;BME280;60402;48.082;11.628;2022-10-23T00:02:18;95611.94;;;9.04;100.00
72409;BME280;60402;48.082;11.628;2022-10-23T00:04:43;95611.22;;;9.00;100.00
72409;BME280;60402;48.082;11.628;2022-10-23T00:07:09;95614.38;;;9.02;100.00
72409;BME280;60402;48.082;11.628;2022-10-23T00:09:34;95595.72;;;8.88;100.00
72409;BME280;60402;48.082;11.628;2022-10-23T00:11:59;95600.19;;;8.85;100.00
72409;BME280;60402;48.082;11.628;2022-10-23T00:14:24;95592.06;;;8.67;100.00
72409;BME280;60402;48.082;11.628;2022-10-23T00:16:50;95600.75;;;8.77;100.00
72409;BME280;60402;48.082;11.628;2022-10-23T00:19:15;95608.56;;;8.89;100.00
72409;BME280;60402;48.082;11.628;2022-10-23T00:21:41;95592.00;;;8.71;100.00
72409;BME280;60402;48.082;11.628;2022-10-23T00:24:07;95593.72;;;8.65;100.00
72409;BME280;60402;48.082;11.628;2022-10-23T00:26:33;95612.09;;;8.73;100.00
72409;BME280;60402;48.082;11.628;2022-10-23T00:28:58;95593.78;;;8.61;100.00
72409;BME280;60402;48.082;11.628;2022-10-23T00:31:24;95601.25;;;8.72;100.00
72409;BME280;60402;48.082;11.628;2022-10-23T00:33:50;95597.03;;;8.60;100.00
72409;BME280;60402;48.082;11.628;2022-10-23T00:36:17;95603.44;;;8.60;100.00
72409;BME280;60402;48.082;11.628;2022-10-23T00:38:45;95595.56;;;8.52;100.00
72409;BME280;60402;48.082;11.628;2022-10-23T00:41:16;95581.38;;;8.32;100.00
72409;BME280;60402;48.082;11.628;2022-10-23T00:46:25;95577.81;;;8.28;100.00
72409;BME280;60402;48.082;11.628;2022-10-23T00:48:51;95582.97;;;8.33;100.00
72409;BME280;60402;48.082;11.628;2022-10-23T00:51:17;95598.06;;;8.46;100.00
72409;BME280;60402;48.082;11.628;2022-10-23T00:53:43;95599.59;;;8.51;100.00
72409;BME280;60402;48.082;11.628;2022-10-23T00:56:09;95591.81;;;8.58;100.00
72409;BME280;60402;48.082;11.628;2022-10-23T00:58:35;95570.91;;;8.32;100.00
72409;BME280;60402;48.082;11.628;2022-10-23T01:01:01;95596.91;;;8.43;100.00
72409;BME280;60402;48.082;11.628;2022-10-23T01:03:27;95596.78;;;8.51;100.00
72409;BME280;60402;48.082;11.628;2022-10-23T01:06:02;95599.66;;;8.47;100.00
72409;BME280;60402;48.082;11.628;2022-10-23T01:08:36;95583.19;;;8.45;100.00
72409;BME280;60402;48.082;11.628;2022-10-23T01:11:10;95599.09;;;8.56;100.00
72409;BME280;60402;48.082;11.628;2022-10-23T01:13:56;95595.56;;;8.52;100.00
72409;BME280;60402;48.082;11.628;2022-10-23T01:19:19;95582.38;;;8.45;100.00
72409;BME280;60402;48.082;11.628;2022-10-23T01:21:54;95591.09;;;8.54;100.00
72409;BME280;60402;48.082;11.628;2022-10-23T01:25:00;95588.63;;;8.33;100.00
72409;BME280;60402;48.082;11.628;2022-10-23T01:30:11;95564.44;;;8.08;100.00
72409;BME280;60402;48.082;11.628;2022-10-23T01:32:48;95578.13;;;8.10;100.00
72409;BME280;60402;48.082;11.628;2022-10-23T01:35:18;95572.75;;;8.19;100.00
72409;BME280;60402;48.082;11.628;2022-10-23T01:37:48;95547.00;;;7.93;100.00
72409;BME280;60402;48.082;11.628;2022-10-23T01:40:31;95566.88;;;8.10;100.00
72409;BME280;60402;48.082;11.628;2022-10-23T01:43:03;95568.44;;;8.11;100.00
72409;BME280;60402;48.082;11.628;2022-10-23T01:45:47;95568.88;;;8.09;100.00
72409;BME280;60402;48.082;11.628;2022-10-23T01:48:21;95560.44;;;8.09;100.00
72409;BME280;60402;48.082;11.628;2022-10-23T01:50:49;95554.91;;;8.02;100.00
72409;BME280;60402;48.082;11.628;2022-10-23T01:53:17;95552.94;;;7.99;100.00
72409;BME280;60402;48.082;11.628;2022-10-23T01:55:43;95554.97;;;7.99;100.00
72409;BME280;60402;48.082;11.628;2022-10-23T01:58:09;95551.47;;;7.91;100.00
72409;BME280;60402;48.082;11.628;2022-10-23T02:00:38;95548.66;;;7.91;100.00
72409;BME280;60402;48.082;11.628;2022-10-23T02:03:05;95547.44;;;7.92;100.00
72409;BME280;60402;48.082;11.628;2022-10-23T02:05:32;95538.69;;;7.86;100.00
72409;BME280;60402;48.082;11.628;2022-10-23T02:07:57;95547.00;;;7.93;100.00
72409;BME280;60402;48.082;11.628;2022-10-23T02:13:19;95555.56;;;7.86;100.00
72409;BME280;60402;48.082;11.628;2022-10-23T02:15:49;95535.34;;;7.68;100.00
72409;BME280;60402;48.082;11.628;2022-10-23T02:18:51;95530.94;;;7.67;100.00
72409;BME280;60402;48.082;11.628;2022-10-23T02:21:17;95537.69;;;7.73;100.00
72409;BME280;60402;48.082;11.628;2022-10-23T02:24:14;95537.63;;;7.77;100.00
72409;BME280;60402;48.082;11.628;2022-10-23T02:26:50;95523.72;;;7.66;100.00
72409;BME280;60402;48.082;11.628;2022-10-23T02:29:50;95523.78;;;7.62;100.00
72409;BME280;60402;48.082;11.628;2022-10-23T02:32:19;95507.44;;;7.54;100.00
72409;BME280;60402;48.082;11.628;2022-10-23T02:34:46;95519.44;;;7.58;100.00
72409;BME280;60402;48.082;11.628;2022-10-23T02:37:12;95514.22;;;7.56;100.00
72409;BME280;60402;48.082;11.628;2022-10-23T02:39:38;95501.50;;;7.48;100.00
72409;BME280;60402;48.082;11.628;2022-10-23T02:42:08;95518.94;;;7.63;100.00
72409;BME280;60402;48.082;11.628;2022-10-23T02:44:53;95520.91;;;7.66;100.00
72409;BME280;60402;48.082;11.628;2022-10-23T02:47:45;95508.81;;;7.69;100.00
72409;BME280;60402;48.082;11.628;2022-10-23T02:50:25;95504.44;;;7.64;100.00
72409;BME280;60402;48.082;11.628;2022-10-23T02:53:14;95494.66;;;7.49;100.00
72409;BME280;60402;48.082;11.628;2022-10-23T02:55:51;95507.03;;;7.52;100.00
72409;BME280;60402;48.082;11.628;2022-10-23T02:58:36;95506.56;;;7.57;100.00
72409;BME280;60402;48.082;11.628;2022-10-23T03:01:14;95505.72;;;7.60;100.00
72409;BME280;60402;48.082;11.628;2022-10-23T03:03:44;95507.00;;;7.55;100.00
72409;BME280;60402;48.082;11.628;2022-10-23T03:06:12;95490.09;;;7.59;100.00
72409;BME280;60402;48.082;11.628;2022-10-23T03:08:47;95485.81;;;7.47;100.00
72409;BME280;60402;48.082;11.628;2022-10-23T03:11:13;95502.56;;;7.58;100.00
72409;BME280;60402;48.082;11.628;2022-10-23T03:13:38;95471.88;;;7.40;100.00
72409;BME280;60402;48.082;11.628;2022-10-23T03:16:04;95498.78;;;7.41;100.00
72409;BME280;60402;48.082;11.628;2022-10-23T03:18:29;95487.56;;;7.37;100.00
72409;BME280;60402;48.082;11.628;2022-10-23T03:20:55;95500.50;;;7.31;100.00
72409;BME280;60402;48.082;11.628;2022-10-23T03:23:20;95493.44;;;7.20;100.00
72409;BME280;60402;48.082;11.628;2022-10-23T03:25:46;95478.31;;;7.10;100.00
72409;BME280;60402;48.082;11.628;2022-10-23T03:28:11;95489.00;;;7.22;100.00
72409;BME280;60402;48.082;11.628;2022-10-23T03:30:36;95473.09;;;7.12;100.00
72409;BME280;60402;48.082;11.628;2022-10-23T03:33:02;95478.78;;;7.05;100.00
72409;BME280;60402;48.082;11.628;2022-10-23T03:35:27;95467.16;;;7.06;100.00
72409;BME280;60402;48.082;11.628;2022-10-23T03:37:52;95463.44;;;7.13;100.00
72409;BME280;60402;48.082;11.628;2022-10-23T03:40:17;95476.13;;;7.25;100.00
72409;BME280;60402;48.082;11.628;2022-10-23T03:42:43;95483.13;;;7.40;100.00
72409;BME280;60402;48.082;11.628;2022-10-23T03:45:08;95487.84;;;7.47;100.00
72409;BME280;60402;48.082;11.628;2022-10-23T03:47:34;95444.88;;;7.19;100.00
72409;BME280;60402;48.082;11.628;2022-10-23T03:50:00;95476.00;;;7.32;100.00
72409;BME280;60402;48.082;11.628;2022-10-23T03:52:26;95464.50;;;7.23;100.00
72409;BME280;60402;48.082;11.628;2022-10-23T03:54:51;95481.63;;;7.32;100.00
72409;BME280;60402;48.082;11.628;2022-10-23T03:57:16;95476.75;;;7.36;100.00
72409;BME280;60402;48.082;11.628;2022-10-23T03:59:42;95480.88;;;7.28;100.00
72409;BME280;60402;48.082;11.628;2022-10-23T04:02:07;95448.19;;;7.10;100.00
72409;BME280;60402;48.082;11.628;2022-10-23T04:04:32;95482.19;;;7.20;100.00
72409;BME280;60402;48.082;11.628;2022-10-23T04:06:58;95470.75;;;7.07;100.00
72409;BME280;60402;48.082;11.628;2022-10-23T04:09:23;95476.69;;;7.12;100.00
72409;BME280;60402;48.082;11.628;2022-10-23T04:11:48;95481.34;;;7.23;100.00
72409;BME280;60402;48.082;11.628;2022-10-23T04:14:13;95480.56;;;7.22;100.00
72409;BME280;60402;48.082;11.628;2022-10-23T04:16:39;95472.19;;;7.18;100.00
72409;BME280;60402;48.082;11.628;2022-10-23T04:19:04;95480.03;;;7.31;100.00
72409;BME280;60402;48.082;11.628;2022-10-23T04:21:30;95478.34;;;7.37;100.00
72409;BME280;60402;48.082;11.628;2022-10-23T04:23:55;95469.06;;;7.40;100.00
72409;BME280;60402;48.082;11.628;2022-10-23T04:26:20;95459.31;;;7.48;100.00
72409;BME280;60402;48.082;11.628;2022-10-23T04:28:45;95475.97;;;7.62;100.00
72409;BME280;60402;48.082;11.628;2022-10-23T04:31:11;95448.69;;;7.32;100.00
72409;BME280;60402;48.082;11.628;2022-10-23T04:33:36;95462.69;;;7.36;100.00
72409;BME280;60402;48.082;11.628;2022-10-23T04:36:02;95489.69;;;7.57;100.00
72409;BME280;60402;48.082;11.628;2022-10-23T04:38:27;95478.09;;;7.55;100.00
72409;BME280;60402;48.082;11.628;2022-10-23T04:40:52;95485.56;;;7.38;100.00
72409;BME280;60402;48.082;11.628;2022-10-23T04:43:18;95469.28;;;7.26;100.00
72409;BME280;60402;48.082;11.628;2022-10-23T04:45:43;95476.50;;;7.27;100.00
72409;BME280;60402;48.082;11.628;2022-10-23T04:48:08;95480.47;;;7.29;100.00
72409;BME280;60402;48.082;11.628;2022-10-23T04:50:34;95455.53;;;7.31;100.00
72409;BME280;60402;48.082;11.628;2022-10-23T04:52:59;95477.03;;;7.45;100.00
72409;BME280;60402;48.082;11.628;2022-10-23T04:55:24;95457.03;;;7.39;100.00
72409;BME280;60402;48.082;11.628;2022-10-23T04:57:50;95467.50;;;7.39;100.00
72409;BME280;60402;48.082;11.628;2022-10-23T05:00:16;95470.09;;;7.53;100.00
72409;BME280;60402;48.082;11.628;2022-10-23T05:02:42;95458.56;;;7.44;100.00
72409;BME280;60402;48.082;11.628;2022-10-23T05:05:08;95440.69;;;7.31;100.00
72409;BME280;60402;48.082;11.628;2022-10-23T05:07:34;95447.91;;;7.32;100.00
72409;BME280;60402;48.082;11.628;2022-10-23T05:09:59;95464.59;;;7.42;100.00
72409;BME280;60402;48.082;11.628;2022-10-23T05:12:25;95450.41;;;7.26;100.00
72409;BME280;60402;48.082;11.628;2022-10-23T05:14:52;95450.22;;;7.37;100.00
72409;BME280;60402;48.082;11.628;2022-10-23T05:17:23;95441.53;;;7.28;100.00
72409;BME280;60402;48.082;11.628;2022-10-23T05:19:53;95473.78;;;7.47;100.00
72409;BME280;60402;48.082;11.628;2022-10-23T05:22:20;95442.28;;;7.32;100.00
72409;BME280;60402;48.082;11.628;2022-10-23T05:24:48;95446.69;;;7.33;100.00
72409;BME280;60402;48.082;11.628;2022-10-23T05:27:14;95423.84;;;7.31;100.00
72409;BME280;60402;48.082;11.628;2022-10-23T05:29:39;95438.25;;;7.33;100.00
72409;BME280;60402;48.082;11.628;2022-10-23T05:32:05;95438.25;;;7.33;100.00
72409;BME280;60402;48.082;11.628;2022-10-23T05:34:34;95435.50;;;7.29;100.00
72409;BME280;60402;48.082;11.628;2022-10-23T05:37:02;95450.28;;;7.33;100.00
72409;BME280;60402;48.082;11.628;2022-10-23T05:39:27;95434.59;;;7.36;100.00
72409;BME280;60402;48.082;11.628;2022-10-23T05:41:53;95433.00;;;7.35;100.00
72409;BME280;60402;48.082;11.628;2022-10-23T05:44:19;95440.09;;;7.43;100.00
72409;BME280;60402;48.082;11.628;2022-10-23T05:46:45;95416.16;;;7.35;100.00
72409;BME280;60402;48.082;11.628;2022-10-23T05:49:10;95430.94;;;7.39;100.00
72409;BME280;60402;48.082;11.628;2022-10-23T05:51:37;95431.78;;;7.36;100.00
72409;BME280;60402;48.082;11.628;2022-10-23T05:54:03;95422.97;;;7.34;100.00
72409;BME280;60402;48.082;11.628;2022-10-23T05:56:30;95439.25;;;7.46;100.00
72409;BME280;60402;48.082;11.628;2022-10-23T05:58:55;95440.91;;;7.43;100.00
72409;BME280;60402;48.082;11.628;2022-10-23T06:01:21;95444.03;;;7.49;100.00
72409;BME280;60402;48.082;11.628;2022-10-23T06:03:47;95443.59;;;7.51;100.00
72409;BME280;60402;48.082;11.628;2022-10-23T06:06:12;95442.44;;;7.48;100.00
72409;BME280;60402;48.082;11.628;2022-10-23T06:08:37;95420.53;;;7.36;100.00
72409;BME280;60402;48.082;11.628;2022-10-23T06:11:12;95453.25;;;7.50;100.00
72409;BME280;60402;48.082;11.628;2022-10-23T06:13:40;95462.81;;;7.56;100.00
72409;BME280;60402;48.082;11.628;2022-10-23T06:16:17;95447.91;;;7.59;100.00
72409;BME280;60402;48.082;11.628;2022-10-23T06:18:43;95432.88;;;7.69;100.00
72409;BME280;60402;48.082;11.628;2022-10-23T06:21:10;95438.84;;;7.71;100.00
72409;BME280;60402;48.082;11.628;2022-10-23T06:23:37;95453.72;;;7.95;100.00
72409;BME280;60402;48.082;11.628;2022-10-23T06:26:03;95447.88;;;7.86;100.00
72409;BME280;60402;48.082;11.628;2022-10-23T06:28:29;95445.47;;;7.84;100.00
72409;BME280;60402;48.082;11.628;2022-10-23T06:30:54;95439.78;;;7.88;100.00
72409;BME280;60402;48.082;11.628;2022-10-23T06:33:19;95436.41;;;7.97;100.00
72409;BME280;60402;48.082;11.628;2022-10-23T06:35:45;95440.38;;;7.99;100.00
72409;BME280;60402;48.082;11.628;2022-10-23T06:38:10;95441.66;;;8.18;100.00
72409;BME280;60402;48.082;11.628;2022-10-23T06:40:36;95453.41;;;8.36;100.00
72409;BME280;60402;48.082;11.628;2022-10-23T06:43:03;95446.13;;;8.39;100.00
72409;BME280;60402;48.082;11.628;2022-10-23T06:45:29;95450.19;;;8.58;99.96
72409;BME280;60402;48.082;11.628;2022-10-23T06:47:56;95423.63;;;8.59;99.01
72409;BME280;60402;48.082;11.628;2022-10-23T06:50:22;95440.72;;;8.88;98.30
72409;BME280;60402;48.082;11.628;2022-10-23T06:52:49;95443.69;;;9.01;97.74
72409;BME280;60402;48.082;11.628;2022-10-23T06:55:14;95440.06;;;9.00;97.83
72409;BME280;60402;48.082;11.628;2022-10-23T06:57:39;95458.72;;;9.66;95.25
72409;BME280;60402;48.082;11.628;2022-10-23T07:00:05;95461.84;;;9.88;92.95
72409;BME280;60402;48.082;11.628;2022-10-23T07:02:31;95445.19;;;10.56;89.06
72409;BME280;60402;48.082;11.628;2022-10-23T07:04:56;95462.91;;;11.14;86.77
72409;BME280;60402;48.082;11.628;2022-10-23T07:07:21;95466.19;;;11.67;84.71
72409;BME280;60402;48.082;11.628;2022-10-23T07:09:46;95441.63;;;12.37;80.26
72409;BME280;60402;48.082;11.628;2022-10-23T07:12:12;95454.19;;;11.89;79.88
72409;BME280;60402;48.082;11.628;2022-10-23T07:14:37;95449.53;;;13.34;76.27
72409;BME280;60402;48.082;11.628;2022-10-23T07:17:02;95449.59;;;14.82;69.53
72409;BME280;60402;48.082;11.628;2022-10-23T07:19:28;95441.56;;;17.16;62.09
72409;BME280;60402;48.082;11.628;2022-10-23T07:21:53;95435.56;;;18.88;56.06
72409;BME280;60402;48.082;11.628;2022-10-23T07:24:18;95436.66;;;19.37;53.80
72409;BME280;60402;48.082;11.628;2022-10-23T07:26:44;95420.84;;;19.41;52.61
72409;BME280;60402;48.082;11.628;2022-10-23T07:29:10;95437.91;;;20.08;53.68
72409;BME280;60402;48.082;11.628;2022-10-23T07:31:35;95436.22;;;18.98;53.35
72409;BME280;60402;48.082;11.628;2022-10-23T07:34:01;95427.34;;;17.75;55.92
72409;BME280;60402;48.082;11.628;2022-10-23T07:36:26;95418.47;;;16.66;59.41
72409;BME280;60402;48.082;11.628;2022-10-23T07:38:52;95451.47;;;16.01;63.67
72409;BME280;60402;48.082;11.628;2022-10-23T07:41:17;95445.16;;;15.97;63.35
72409;BME280;60402;48.082;11.628;2022-10-23T07:43:42;95441.91;;;15.71;64.33
72409;BME280;60402;48.082;11.628;2022-10-23T07:46:08;95445.44;;;15.99;64.33
72409;BME280;60402;48.082;11.628;2022-10-23T07:48:37;95459.19;;;15.67;65.53
72409;BME280;60402;48.082;11.628;2022-10-23T07:51:06;95453.53;;;16.33;64.49
72409;BME280;60402;48.082;11.628;2022-10-23T07:53:35;95457.09;;;18.13;60.06
72409;BME280;60402;48.082;11.628;2022-10-23T07:56:08;95452.25;;;18.89;57.59
72409;BME280;60402;48.082;11.628;2022-10-23T07:58:34;95449.97;;;18.73;56.92
72409;BME280;60402;48.082;11.628;2022-10-23T08:01:02;95451.66;;;17.56;59.28
72409;BME280;60402;48.082;11.628;2022-10-23T08:03:31;95446.22;;;15.99;63.30
72409;BME280;60402;48.082;11.628;2022-10-23T08:05:56;95443.31;;;15.57;66.63
72409;BME280;60402;48.082;11.628;2022-10-23T08:08:23;95430.63;;;15.16;67.37
72409;BME280;60402;48.082;11.628;2022-10-23T08:10:50;95453.22;;;14.64;70.64
72409;BME280;60402;48.082;11.628;2022-10-23T08:13:16;95454.41;;;15.55;68.82
72409;BME280;60402;48.082;11.628;2022-10-23T08:15:44;95449.13;;;15.90;66.31
72409;BME280;60402;48.082;11.628;2022-10-23T08:18:09;95445.88;;;15.55;66.39
72409;BME280;60402;48.082;11.628;2022-10-23T08:20:39;95430.63;;;17.15;62.90
72409;BME280;60402;48.082;11.628;2022-10-23T08:23:05;95441.59;;;18.20;58.50
72409;BME280;60402;48.082;11.628;2022-10-23T08:25:31;95446.22;;;16.90;60.98
72409;BME280;60402;48.082;11.628;2022-10-23T08:27:56;95441.91;;;16.94;61.14
72409;BME280;60402;48.082;11.628;2022-10-23T08:30:22;95438.59;;;16.72;62.56
72409;BME280;60402;48.082;11.628;2022-10-23T08:32:47;95435.41;;;17.92;59.62
72409;BME280;60402;48.082;11.628;2022-10-23T08:35:13;95437.16;;;18.89;56.28
72409;BME280;60402;48.082;11.628;2022-10-23T08:37:38;95442.06;;;20.07;53.28
72409;BME280;60402;48.082;11.628;2022-10-23T08:40:04;95439.84;;;19.19;55.31
72409;BME280;60402;48.082;11.628;2022-10-23T08:42:29;95436.13;;;20.11;53.73
72409;BME280;60402;48.082;11.628;2022-10-23T08:45:07;95451.19;;;20.06;54.71
72409;BME280;60402;48.082;11.628;2022-10-23T08:47:47;95426.81;;;20.59;52.63
72409;BME280;60402;48.082;11.628;2022-10-23T08:50:51;95431.22;;;20.97;51.07
72409;BME280;60402;48.082;11.628;2022-10-23T08:55:55;95417.19;;;19.93;54.39
72409;BME280;60402;48.082;11.628;2022-10-23T08:58:28;95414.16;;;20.08;54.63
72409;BME280;60402;48.082;11.628;2022-10-23T09:00:58;95424.09;;;19.08;56.58
72409;BME280;60402;48.082;11.628;2022-10-23T09:03:23;95408.16;;;19.02;56.19
72409;BME280;60402;48.082;11.628;2022-10-23T09:06:24;95401.06;;;18.97;57.15
72409;BME280;60402;48.082;11.628;2022-10-23T09:09:19;95387.63;;;17.48;59.21
72409;BME280;60402;48.082;11.628;2022-10-23T09:12:10;95414.19;;;18.13;58.82
72409;BME280;60402;48.082;11.628;2022-10-23T09:17:27;95411.03;;;18.46;58.46
72409;BME280;60402;48.082;11.628;2022-10-23T09:22:52;95409.09;;;18.58;59.11
72409;BME280;60402;48.082;11.628;2022-10-23T09:25:24;95410.28;;;17.96;60.93
72409;BME280;60402;48.082;11.628;2022-10-23T09:27:52;95399.97;;;16.85;65.54
72409;BME280;60402;48.082;11.628;2022-10-23T09:30:44;95398.94;;;16.74;66.41
72409;BME280;60402;48.082;11.628;2022-10-23T09:36:02;95410.03;;;16.24;67.77
72409;BME280;60402;48.082;11.628;2022-10-23T09:38:29;95400.47;;;16.03;69.19
72409;BME280;60402;48.082;11.628;2022-10-23T09:40:57;95411.38;;;16.61;68.05
72409;BME280;60402;48.082;11.628;2022-10-23T09:43:23;95405.47;;;16.89;68.01
72409;BME280;60402;48.082;11.628;2022-10-23T09:46:03;95406.28;;;16.66;68.72
72409;BME280;60402;48.082;11.628;2022-10-23T09:48:29;95393.69;;;16.00;70.70
72409;BME280;60402;48.082;11.628;2022-10-23T09:50:56;95404.44;;;16.29;70.25
72409;BME280;60402;48.082;11.628;2022-10-23T09:53:35;95390.97;;;16.30;71.04
72409;BME280;60402;48.082;11.628;2022-10-23T09:56:19;95380.59;;;16.42;71.27
72409;BME280;60402;48.082;11.628;2022-10-23T09:59:00;95387.06;;;16.18;72.66
72409;BME280;60402;48.082;11.628;2022-10-23T10:01:28;95376.09;;;16.02;73.38
72409;BME280;60402;48.082;11.628;2022-10-23T10:03:54;95366.47;;;16.23;73.01
72409;BME280;60402;48.082;11.628;2022-10-23T10:06:24;95378.34;;;16.46;73.20
72409;BME280;60402;48.082;11.628;2022-10-23T10:08:50;95373.19;;;16.59;72.52
72409;BME280;60402;48.082;11.628;2022-10-23T10:16:59;95373.31;;;17.03;71.35
72409;BME280;60402;48.082;11.628;2022-10-23T10:30:07;95360.16;;;17.50;70.01
72409;BME280;60402;48.082;11.628;2022-10-23T10:32:56;95367.91;;;17.65;69.48
72409;BME280;60402;48.082;11.628;2022-10-23T10:35:51;95347.50;;;17.72;68.54
72409;BME280;60402;48.082;11.628;2022-10-23T10:38:43;95339.44;;;17.85;67.98
72409;BME280;60402;48.082;11.628;2022-10-23T10:47:08;95341.06;;;18.27;65.58
72409;BME280;60402;48.082;11.628;2022-10-23T10:49:48;95333.06;;;18.31;65.30
72409;BME280;60402;48.082;11.628;2022-10-23T10:55:00;95304.72;;;18.53;64.80
72409;BME280;60402;48.082;11.628;2022-10-23T10:57:31;95310.34;;;18.83;64.64
72409;BME280;60402;48.082;11.628;2022-10-23T11:00:01;95308.22;;;18.63;63.44
72409;BME280;60402;48.082;11.628;2022-10-23T11:02:31;95307.53;;;18.68;64.53
72409;BME280;60402;48.082;11.628;2022-10-23T11:05:08;95310.41;;;18.68;63.71
72409;BME280;60402;48.082;11.628;2022-10-23T11:07:51;95293.13;;;18.62;64.10
72409;BME280;60402;48.082;11.628;2022-10-23T11:10:17;95296.56;;;18.67;64.30
72409;BME280;60402;48.082;11.628;2022-10-23T11:12:47;95278.34;;;18.64;63.30
72409;BME280;60402;48.082;11.628;2022-10-23T11:15:14;95296.97;;;18.74;62.64
72409;BME280;60402;48.082;11.628;2022-10-23T11:17:44;95298.13;;;19.14;63.25
72409;BME280;60402;48.082;11.628;2022-10-23T11:20:28;95297.31;;;19.08;62.81
72409;BME280;60402;48.082;11.628;2022-10-23T11:23:15;95291.16;;;19.15;63.05
72409;BME280;60402;48.082;11.628;2022-10-23T11:25:55;95293.09;;;19.03;61.61
72409;BME280;60402;48.082;11.628;2022-10-23T11:33:58;95285.75;;;18.97;62.24
72409;BME280;60402;48.082;11.628;2022-10-23T11:36:51;95295.19;;;19.03;62.96
72409;BME280;60402;48.082;11.628;2022-10-23T11:39:20;95275.56;;;19.22;62.68
72409;BME280;60402;48.082;11.628;2022-10-23T11:42:30;95281.25;;;19.48;61.87
72409;BME280;60402;48.082;11.628;2022-10-23T11:44:46;95282.47;;;19.35;61.83
72409;BME280;60402;48.082;11.628;2022-10-23T11:52:30;95257.66;;;19.58;61.67
72409;BME280;60402;48.082;11.628;2022-10-23T11:55:17;95260.66;;;19.44;61.43
72409;BME280;60402;48.082;11.628;2022-10-23T11:57:44;95232.97;;;19.03;61.99
72409;BME280;60402;48.082;11.628;2022-10-23T12:00:20;95247.56;;;19.37;62.26
72409;BME280;60402;48.082;11.628;2022-10-23T12:02:51;95240.34;;;19.47;61.86
72409;BME280;60402;48.082;11.628;2022-10-23T12:05:38;95256.97;;;19.69;62.25
72409;BME280;60402;48.082;11.628;2022-10-23T12:08:25;95245.31;;;19.84;61.07
72409;BME280;60402;48.082;11.628;2022-10-23T12:10:51;95252.34;;;19.77;60.58
72409;BME280;60402;48.082;11.628;2022-10-23T12:16:03;95240.50;;;19.64;60.67
72409;BME280;60402;48.082;11.628;2022-10-23T12:18:29;95238.56;;;19.50;60.55
72409;BME280;60402;48.082;11.628;2022-10-23T12:21:02;95246.66;;;19.57;59.88
72409;BME280;60402;48.082;11.628;2022-10-23T12:26:18;95231.66;;;19.62;60.34
72409;BME280;60402;48.082;11.628;2022-10-23T12:29:10;95221.75;;;19.63;61.19
72409;BME280;60402;48.082;11.628;2022-10-23T12:34:33;95222.09;;;19.76;61.38
72409;BME280;60402;48.082;11.628;2022-10-23T12:40:07;95205.47;;;19.49;61.58
72409;BME280;60402;48.082;11.628;2022-10-23T12:42:34;95210.91;;;19.84;61.55
72409;BME280;60402;48.082;11.628;2022-10-23T12:45:07;95196.94;;;20.03;61.44
72409;BME280;60402;48.082;11.628;2022-10-23T12:47:38;95207.63;;;20.02;62.07
72409;BME280;60402;48.082;11.628;2022-10-23T12:50:26;95199.53;;;20.01;61.93
72409;BME280;60402;48.082;11.628;2022-10-23T12:53:00;95188.75;;;19.84;61.78
72409;BME280;60402;48.082;11.628;2022-10-23T12:55:33;95204.91;;;19.76;62.18
72409;BME280;60402;48.082;11.628;2022-10-23T12:58:25;95207.22;;;19.72;61.69
72409;BME280;60402;48.082;11.628;2022-10-23T13:00:56;95205.16;;;19.78;62.17
72409;BME280;60402;48.082;11.628;2022-10-23T13:03:23;95193.78;;;19.95;61.76
72409;BME280;60402;48.082;11.628;2022-10-23T13:08:16;95197.53;;;20.18;61.23
72409;BME280;60402;48.082;11.628;2022-10-23T13:10:42;95202.03;;;20.36;61.36
72409;BME280;60402;48.082;11.628;2022-10-23T13:13:10;95194.28;;;20.53;59.97
72409;BME280;60402;48.082;11.628;2022-10-23T13:15:41;95193.09;;;20.17;59.43
72409;BME280;60402;48.082;11.628;2022-10-23T13:18:08;95188.13;;;20.12;59.91
72409;BME280;60402;48.082;11.628;2022-10-23T13:20:36;95190.72;;;20.10;60.30
72409;BME280;60402;48.082;11.628;2022-10-23T13:25:57;95188.31;;;19.97;60.63
72409;BME280;60402;48.082;11.628;2022-10-23T13:28:33;95195.91;;;20.00;62.83
72409;BME280;60402;48.082;11.628;2022-10-23T13:33:41;95187.03;;;20.04;61.90
72409;BME280;60402;48.082;11.628;2022-10-23T13:38:41;95166.69;;;19.96;62.69
72409;BME280;60402;48.082;11.628;2022-10-23T13:41:12;95175.84;;;20.11;62.50
72409;BME280;60402;48.082;11.628;2022-10-23T13:43:39;95156.28;;;20.04;62.68
72409;BME280;60402;48.082;11.628;2022-10-23T13:46:05;95151.81;;;20.03;62.32
72409;BME280;60402;48.082;11.628;2022-10-23T13:48:37;95170.88;;;20.06;62.73
72409;BME280;60402;48.082;11.628;2022-10-23T13:51:11;95170.09;;;20.06;62.96
72409;BME280;60402;48.082;11.628;2022-10-23T13:53:37;95160.19;;;20.01;63.50
72409;BME280;60402;48.082;11.628;2022-10-23T13:56:03;95161.44;;;19.95;63.45
72409;BME280;60402;48.082;11.628;2022-10-23T13:58:28;95153.09;;;19.91;63.72
72409;BME280;60402;48.082;11.628;2022-10-23T14:00:53;95151.75;;;19.81;64.74
72409;BME280;60402;48.082;11.628;2022-10-23T14:03:19;95159.75;;;19.71;65.09
72409;BME280;60402;48.082;11.628;2022-10-23T14:05:51;95165.25;;;19.75;65.05
72409;BME280;60402;48.082;11.628;2022-10-23T14:08:17;95166.31;;;19.77;65.22
72409;BME280;60402;48.082;11.628;2022-10-23T14:10:42;95172.06;;;19.77;65.07
72409;BME280;60402;48.082;11.628;2022-10-23T14:13:09;95156.41;;;19.73;65.36
72409;BME280;60402;48.082;11.628;2022-10-23T14:15:34;95173.38;;;19.82;65.32
72409;BME280;60402;48.082;11.628;2022-10-23T14:17:59;95168.69;;;19.84;65.30
72409;BME280;60402;48.082;11.628;2022-10-23T14:20:25;95156.97;;;19.82;65.44
72409;BME280;60402;48.082;11.628;2022-10-23T14:22:50;95173.53;;;20.21;64.26
72409;BME280;60402;48.082;11.628;2022-10-23T14:25:16;95166.69;;;20.02;64.37